TPOK1: Kansas River, State-Line, KS

                                SHEF ID:       TPOK1     MARAIS DES CYGNES R NR KS-MO ST
STATION TYPE:

STAGE STAGE(2) RIV-FLOW BAT-LOAD
ft ft cfs volt
Ccp-Rev Ccp-Rev Ccp-Rev Ccp-Rev
(America/Chicago)
06/23 00:00 9.25 9.30 2930 12.50
06/23 01:00 9.17 9.26 2876 12.52
06/23 02:00 9.13 9.25 2849 12.48
06/23 03:00 9.09 9.18 2822 12.47
06/23 04:00 9.05 9.15 2795 12.43
06/23 05:00 9.06 9.15 2802 12.41
06/23 06:00 9.05 9.13 2795 12.37
06/23 07:00 9.05 9.12 2795 12.36
06/23 08:00 9.08 9.17 2815 12.41
06/23 09:00 9.11 9.18 2835 13.09
06/23 10:00 9.15 9.23 2862 13.51
06/23 11:00 9.19 9.31 2889 13.35
06/23 12:00 9.26 9.30 2937 13.40
06/23 13:00 9.30 9.39 2964 13.22
06/23 14:00 9.39 9.46 3025 13.13
06/23 15:00 9.44 9.53 3060 13.09
06/23 16:00 9.50 9.60 3101 13.07
06/23 17:00 9.56 9.66 3143 13.03
06/23 18:00 9.62 9.73 3185 13.03
06/23 19:00 9.65 9.77 3206 12.74
06/23 20:00 9.72 9.86 3255 12.67
06/23 21:00 9.74 9.83 3269 12.60
06/23 22:00 9.78 9.92 3298 12.59
06/23 23:00 9.81 9.97 3319 12.55
Data processed at Wed 24Jun2026 04:52 GMT

NOTICE: If you are parsing this page

Please convert to using our Data API. Starting early 2026 we will be migrating to: https://water.usace.army.mil with modern pages rendered in JavaScript. When this migration completes you will no longer be able to scrape this page! CWMSDataAPI (CDA)

Timeseries IDs (TSIDs)

TSIDs used from left to right in the data table
MKSL.Stage.Inst.1Hour.0.Ccp-Rev
MKSL.Stage-Alt.Inst.1Hour.0.Ccp-Rev
MKSL.Flow.Inst.1Hour.0.Ccp-Rev
MKSL.Volt-Battery Load.Inst.1Hour.0.Ccp-Rev

                            

All information presented herein is the property of the government of the United States of America and may be revised or deleted at any time without prior notice. Dissemination of this information without the expressed written consent of the Public Affairs Office, Tulsa District U.S. Army Corps of Engineers is strictly prohibited. These data are gathered electronically and, as presented, have NOT undergone any form of quality control. These data are NOT guaranteed to be valid or correct.